sensor_id;sensor_type;location;lat;lon;timestamp;temperature;humidity
21259;DHT22;10787;53.364;-1.480;2023-04-16T00:01:40;8.00;1.00
21259;DHT22;10787;53.364;-1.480;2023-04-16T00:04:25;8.00;1.00
21259;DHT22;10787;53.364;-1.480;2023-04-16T00:07:09;7.90;1.00
21259;DHT22;10787;53.364;-1.480;2023-04-16T00:09:53;7.90;1.00
21259;DHT22;10787;53.364;-1.480;2023-04-16T00:12:38;7.90;1.00
21259;DHT22;10787;53.364;-1.480;2023-04-16T00:15:22;7.90;1.00
21259;DHT22;10787;53.364;-1.480;2023-04-16T00:18:06;7.90;1.00
21259;DHT22;10787;53.364;-1.480;2023-04-16T00:20:51;7.90;1.00
21259;DHT22;10787;53.364;-1.480;2023-04-16T00:23:34;7.90;1.00
21259;DHT22;10787;53.364;-1.480;2023-04-16T00:26:22;7.90;1.00
21259;DHT22;10787;53.364;-1.480;2023-04-16T00:29:06;7.90;1.00
21259;DHT22;10787;53.364;-1.480;2023-04-16T00:31:51;7.90;1.00
21259;DHT22;10787;53.364;-1.480;2023-04-16T00:34:35;7.90;1.00
21259;DHT22;10787;53.364;-1.480;2023-04-16T00:37:20;7.90;1.00
21259;DHT22;10787;53.364;-1.480;2023-04-16T00:40:04;8.00;1.00
21259;DHT22;10787;53.364;-1.480;2023-04-16T00:42:49;8.00;1.00
21259;DHT22;10787;53.364;-1.480;2023-04-16T00:45:33;8.00;1.00
21259;DHT22;10787;53.364;-1.480;2023-04-16T00:48:20;8.00;1.00
21259;DHT22;10787;53.364;-1.480;2023-04-16T00:51:06;8.00;1.00
21259;DHT22;10787;53.364;-1.480;2023-04-16T00:53:51;7.90;1.00
21259;DHT22;10787;53.364;-1.480;2023-04-16T00:56:36;7.90;1.00
21259;DHT22;10787;53.364;-1.480;2023-04-16T00:59:21;7.90;1.00
21259;DHT22;10787;53.364;-1.480;2023-04-16T01:02:05;7.90;1.00
21259;DHT22;10787;53.364;-1.480;2023-04-16T01:04:50;7.90;1.00
21259;DHT22;10787;53.364;-1.480;2023-04-16T01:07:34;7.90;1.00
21259;DHT22;10787;53.364;-1.480;2023-04-16T01:10:18;7.90;1.00
21259;DHT22;10787;53.364;-1.480;2023-04-16T01:13:03;7.90;1.00
21259;DHT22;10787;53.364;-1.480;2023-04-16T01:15:47;7.90;1.00
21259;DHT22;10787;53.364;-1.480;2023-04-16T01:18:31;7.90;1.00
21259;DHT22;10787;53.364;-1.480;2023-04-16T01:21:15;7.90;1.00
21259;DHT22;10787;53.364;-1.480;2023-04-16T01:24:03;7.90;1.00
21259;DHT22;10787;53.364;-1.480;2023-04-16T01:26:48;7.90;1.00
21259;DHT22;10787;53.364;-1.480;2023-04-16T01:29:32;7.90;1.00
21259;DHT22;10787;53.364;-1.480;2023-04-16T01:32:19;7.90;1.00
21259;DHT22;10787;53.364;-1.480;2023-04-16T01:35:04;7.90;1.00
21259;DHT22;10787;53.364;-1.480;2023-04-16T01:37:49;7.90;1.00
21259;DHT22;10787;53.364;-1.480;2023-04-16T01:40:35;7.90;1.00
21259;DHT22;10787;53.364;-1.480;2023-04-16T01:43:20;7.90;1.00
21259;DHT22;10787;53.364;-1.480;2023-04-16T01:46:22;7.90;1.00
21259;DHT22;10787;53.364;-1.480;2023-04-16T01:49:09;7.90;1.00
21259;DHT22;10787;53.364;-1.480;2023-04-16T01:51:54;7.90;1.00
21259;DHT22;10787;53.364;-1.480;2023-04-16T01:54:38;7.90;1.00
21259;DHT22;10787;53.364;-1.480;2023-04-16T01:57:22;7.90;1.00
21259;DHT22;10787;53.364;-1.480;2023-04-16T02:00:07;7.90;1.00
21259;DHT22;10787;53.364;-1.480;2023-04-16T02:02:52;7.80;1.00
21259;DHT22;10787;53.364;-1.480;2023-04-16T02:05:36;7.90;1.00
21259;DHT22;10787;53.364;-1.480;2023-04-16T02:08:20;7.90;1.00
21259;DHT22;10787;53.364;-1.480;2023-04-16T02:11:05;7.90;1.00
21259;DHT22;10787;53.364;-1.480;2023-04-16T02:13:49;7.90;1.00
21259;DHT22;10787;53.364;-1.480;2023-04-16T02:16:33;7.90;1.00
21259;DHT22;10787;53.364;-1.480;2023-04-16T02:19:18;7.90;1.00
21259;DHT22;10787;53.364;-1.480;2023-04-16T02:22:02;7.90;1.00
21259;DHT22;10787;53.364;-1.480;2023-04-16T02:24:47;7.80;1.00
21259;DHT22;10787;53.364;-1.480;2023-04-16T02:27:30;8.00;1.00
21259;DHT22;10787;53.364;-1.480;2023-04-16T02:30:15;7.90;1.00
21259;DHT22;10787;53.364;-1.480;2023-04-16T02:32:59;7.90;1.00
21259;DHT22;10787;53.364;-1.480;2023-04-16T02:35:46;7.90;1.00
21259;DHT22;10787;53.364;-1.480;2023-04-16T02:38:31;7.90;1.00
21259;DHT22;10787;53.364;-1.480;2023-04-16T02:41:16;7.90;1.00
21259;DHT22;10787;53.364;-1.480;2023-04-16T02:44:00;8.00;1.00
21259;DHT22;10787;53.364;-1.480;2023-04-16T02:46:44;8.00;1.00
21259;DHT22;10787;53.364;-1.480;2023-04-16T02:49:28;8.00;1.00
21259;DHT22;10787;53.364;-1.480;2023-04-16T02:52:12;8.00;1.00
21259;DHT22;10787;53.364;-1.480;2023-04-16T02:54:57;8.00;1.00
21259;DHT22;10787;53.364;-1.480;2023-04-16T02:57:41;8.00;1.00
21259;DHT22;10787;53.364;-1.480;2023-04-16T03:00:25;8.10;1.00
21259;DHT22;10787;53.364;-1.480;2023-04-16T03:03:09;8.10;1.00
21259;DHT22;10787;53.364;-1.480;2023-04-16T03:05:53;8.10;1.00
21259;DHT22;10787;53.364;-1.480;2023-04-16T03:08:38;8.10;1.00
21259;DHT22;10787;53.364;-1.480;2023-04-16T03:11:22;8.20;1.00
21259;DHT22;10787;53.364;-1.480;2023-04-16T03:14:07;8.20;1.00
21259;DHT22;10787;53.364;-1.480;2023-04-16T03:16:51;8.20;1.00
21259;DHT22;10787;53.364;-1.480;2023-04-16T03:19:36;8.20;1.00
21259;DHT22;10787;53.364;-1.480;2023-04-16T03:22:20;8.20;1.00
21259;DHT22;10787;53.364;-1.480;2023-04-16T03:25:05;8.20;1.00
21259;DHT22;10787;53.364;-1.480;2023-04-16T03:27:50;8.30;1.00
21259;DHT22;10787;53.364;-1.480;2023-04-16T03:30:34;8.30;1.00
21259;DHT22;10787;53.364;-1.480;2023-04-16T03:33:19;8.30;1.00
21259;DHT22;10787;53.364;-1.480;2023-04-16T03:36:04;8.30;1.00
21259;DHT22;10787;53.364;-1.480;2023-04-16T03:38:48;8.30;1.00
21259;DHT22;10787;53.364;-1.480;2023-04-16T03:41:33;8.40;1.00
21259;DHT22;10787;53.364;-1.480;2023-04-16T03:44:17;8.40;1.00
21259;DHT22;10787;53.364;-1.480;2023-04-16T03:47:01;8.40;1.00
21259;DHT22;10787;53.364;-1.480;2023-04-16T03:49:45;8.40;1.00
21259;DHT22;10787;53.364;-1.480;2023-04-16T03:52:29;8.50;1.00
21259;DHT22;10787;53.364;-1.480;2023-04-16T03:55:14;8.50;1.00
21259;DHT22;10787;53.364;-1.480;2023-04-16T03:57:59;8.50;1.00
21259;DHT22;10787;53.364;-1.480;2023-04-16T04:00:50;8.40;1.00
21259;DHT22;10787;53.364;-1.480;2023-04-16T04:03:35;8.40;1.00
21259;DHT22;10787;53.364;-1.480;2023-04-16T04:06:19;8.40;1.00
21259;DHT22;10787;53.364;-1.480;2023-04-16T04:09:04;8.40;1.00
21259;DHT22;10787;53.364;-1.480;2023-04-16T04:11:49;8.40;1.00
21259;DHT22;10787;53.364;-1.480;2023-04-16T04:14:33;8.40;1.00
21259;DHT22;10787;53.364;-1.480;2023-04-16T04:17:22;8.40;1.00
21259;DHT22;10787;53.364;-1.480;2023-04-16T04:20:07;8.50;1.00
21259;DHT22;10787;53.364;-1.480;2023-04-16T04:22:54;8.40;1.00
21259;DHT22;10787;53.364;-1.480;2023-04-16T04:25:38;8.50;1.00
21259;DHT22;10787;53.364;-1.480;2023-04-16T04:28:22;8.50;1.00
21259;DHT22;10787;53.364;-1.480;2023-04-16T04:31:06;8.50;1.00
21259;DHT22;10787;53.364;-1.480;2023-04-16T04:33:50;8.50;1.00
21259;DHT22;10787;53.364;-1.480;2023-04-16T04:36:35;8.50;1.00
21259;DHT22;10787;53.364;-1.480;2023-04-16T04:39:19;8.50;1.00
21259;DHT22;10787;53.364;-1.480;2023-04-16T04:42:04;8.50;1.00
21259;DHT22;10787;53.364;-1.480;2023-04-16T04:44:49;8.50;1.00
21259;DHT22;10787;53.364;-1.480;2023-04-16T04:47:33;8.50;1.00
21259;DHT22;10787;53.364;-1.480;2023-04-16T04:50:17;8.50;1.00
21259;DHT22;10787;53.364;-1.480;2023-04-16T04:53:02;8.60;1.00
21259;DHT22;10787;53.364;-1.480;2023-04-16T04:55:52;8.60;1.00
21259;DHT22;10787;53.364;-1.480;2023-04-16T04:58:37;8.60;1.00
21259;DHT22;10787;53.364;-1.480;2023-04-16T05:01:21;8.60;1.00
21259;DHT22;10787;53.364;-1.480;2023-04-16T05:04:05;8.60;1.00
21259;DHT22;10787;53.364;-1.480;2023-04-16T05:06:50;8.70;1.00
21259;DHT22;10787;53.364;-1.480;2023-04-16T05:09:34;8.70;1.00
21259;DHT22;10787;53.364;-1.480;2023-04-16T05:12:19;8.70;1.00
21259;DHT22;10787;53.364;-1.480;2023-04-16T05:15:04;8.70;1.00
21259;DHT22;10787;53.364;-1.480;2023-04-16T05:17:48;8.70;1.00
21259;DHT22;10787;53.364;-1.480;2023-04-16T05:20:33;8.70;1.00
21259;DHT22;10787;53.364;-1.480;2023-04-16T05:23:18;8.80;1.00
21259;DHT22;10787;53.364;-1.480;2023-04-16T05:26:02;8.80;1.00
21259;DHT22;10787;53.364;-1.480;2023-04-16T05:28:46;8.80;1.00
21259;DHT22;10787;53.364;-1.480;2023-04-16T05:31:30;8.80;1.00
21259;DHT22;10787;53.364;-1.480;2023-04-16T05:34:15;8.90;1.00
21259;DHT22;10787;53.364;-1.480;2023-04-16T05:36:59;8.90;1.00
21259;DHT22;10787;53.364;-1.480;2023-04-16T05:39:44;8.90;1.00
21259;DHT22;10787;53.364;-1.480;2023-04-16T05:42:28;9.00;1.00
21259;DHT22;10787;53.364;-1.480;2023-04-16T05:45:12;9.00;1.00
21259;DHT22;10787;53.364;-1.480;2023-04-16T05:47:56;9.00;1.00
21259;DHT22;10787;53.364;-1.480;2023-04-16T05:50:41;9.00;1.00
21259;DHT22;10787;53.364;-1.480;2023-04-16T05:53:25;9.00;1.00
21259;DHT22;10787;53.364;-1.480;2023-04-16T05:56:10;9.00;1.00
21259;DHT22;10787;53.364;-1.480;2023-04-16T05:58:54;9.00;1.00
21259;DHT22;10787;53.364;-1.480;2023-04-16T06:01:39;9.00;1.00
21259;DHT22;10787;53.364;-1.480;2023-04-16T06:04:24;9.00;1.00
21259;DHT22;10787;53.364;-1.480;2023-04-16T06:07:08;9.10;1.00
21259;DHT22;10787;53.364;-1.480;2023-04-16T06:09:56;9.10;1.00
21259;DHT22;10787;53.364;-1.480;2023-04-16T06:12:40;9.20;1.00
21259;DHT22;10787;53.364;-1.480;2023-04-16T06:15:25;9.20;1.00
21259;DHT22;10787;53.364;-1.480;2023-04-16T06:18:09;9.30;1.00
21259;DHT22;10787;53.364;-1.480;2023-04-16T06:20:53;9.40;1.00
21259;DHT22;10787;53.364;-1.480;2023-04-16T06:23:38;9.50;1.00
21259;DHT22;10787;53.364;-1.480;2023-04-16T06:26:22;9.60;1.00
21259;DHT22;10787;53.364;-1.480;2023-04-16T06:29:06;9.70;1.00
21259;DHT22;10787;53.364;-1.480;2023-04-16T06:31:50;9.90;1.00
21259;DHT22;10787;53.364;-1.480;2023-04-16T06:34:36;10.10;1.00
21259;DHT22;10787;53.364;-1.480;2023-04-16T06:37:20;10.20;1.00
21259;DHT22;10787;53.364;-1.480;2023-04-16T06:40:05;10.40;1.00
21259;DHT22;10787;53.364;-1.480;2023-04-16T06:42:49;10.50;1.00
21259;DHT22;10787;53.364;-1.480;2023-04-16T06:45:33;10.70;1.00
21259;DHT22;10787;53.364;-1.480;2023-04-16T06:48:18;10.90;1.00
21259;DHT22;10787;53.364;-1.480;2023-04-16T06:51:02;11.10;1.00
21259;DHT22;10787;53.364;-1.480;2023-04-16T06:53:48;11.20;1.00
21259;DHT22;10787;53.364;-1.480;2023-04-16T06:56:32;11.40;1.00
21259;DHT22;10787;53.364;-1.480;2023-04-16T06:59:16;11.50;1.00
21259;DHT22;10787;53.364;-1.480;2023-04-16T07:02:00;11.60;1.00
21259;DHT22;10787;53.364;-1.480;2023-04-16T07:04:45;11.60;1.00
21259;DHT22;10787;53.364;-1.480;2023-04-16T07:07:29;11.70;1.00
21259;DHT22;10787;53.364;-1.480;2023-04-16T07:10:14;11.80;1.00
21259;DHT22;10787;53.364;-1.480;2023-04-16T07:12:58;11.90;1.00
21259;DHT22;10787;53.364;-1.480;2023-04-16T07:15:44;11.90;1.00
21259;DHT22;10787;53.364;-1.480;2023-04-16T07:18:28;12.00;1.00
21259;DHT22;10787;53.364;-1.480;2023-04-16T07:21:22;12.10;1.00
21259;DHT22;10787;53.364;-1.480;2023-04-16T07:24:06;12.10;1.00
21259;DHT22;10787;53.364;-1.480;2023-04-16T07:26:50;12.20;1.00
21259;DHT22;10787;53.364;-1.480;2023-04-16T07:29:35;12.20;1.00
21259;DHT22;10787;53.364;-1.480;2023-04-16T07:32:20;12.30;1.00
21259;DHT22;10787;53.364;-1.480;2023-04-16T07:35:05;12.30;1.00
21259;DHT22;10787;53.364;-1.480;2023-04-16T07:37:49;12.40;1.00
21259;DHT22;10787;53.364;-1.480;2023-04-16T07:40:35;12.40;1.00
21259;DHT22;10787;53.364;-1.480;2023-04-16T07:43:19;12.50;1.00
21259;DHT22;10787;53.364;-1.480;2023-04-16T07:46:03;12.60;1.00
21259;DHT22;10787;53.364;-1.480;2023-04-16T07:48:48;12.60;1.00
21259;DHT22;10787;53.364;-1.480;2023-04-16T07:51:32;12.80;1.00
21259;DHT22;10787;53.364;-1.480;2023-04-16T07:54:17;13.00;1.00
21259;DHT22;10787;53.364;-1.480;2023-04-16T07:57:01;13.10;1.00
21259;DHT22;10787;53.364;-1.480;2023-04-16T07:59:45;13.10;1.00
21259;DHT22;10787;53.364;-1.480;2023-04-16T08:02:30;13.10;1.00
21259;DHT22;10787;53.364;-1.480;2023-04-16T08:05:14;13.10;1.00
21259;DHT22;10787;53.364;-1.480;2023-04-16T08:07:59;13.10;1.00
21259;DHT22;10787;53.364;-1.480;2023-04-16T08:10:44;13.00;1.00
21259;DHT22;10787;53.364;-1.480;2023-04-16T08:13:28;12.80;1.00
21259;DHT22;10787;53.364;-1.480;2023-04-16T08:16:13;12.70;1.00
21259;DHT22;10787;53.364;-1.480;2023-04-16T08:18:58;12.70;1.00
21259;DHT22;10787;53.364;-1.480;2023-04-16T08:21:44;12.70;1.00
21259;DHT22;10787;53.364;-1.480;2023-04-16T08:24:28;12.60;1.00
21259;DHT22;10787;53.364;-1.480;2023-04-16T08:27:12;12.50;1.00
21259;DHT22;10787;53.364;-1.480;2023-04-16T08:29:56;12.60;1.00
21259;DHT22;10787;53.364;-1.480;2023-04-16T08:32:42;12.70;1.00
21259;DHT22;10787;53.364;-1.480;2023-04-16T08:35:26;12.70;1.00
21259;DHT22;10787;53.364;-1.480;2023-04-16T08:38:10;12.60;1.00
21259;DHT22;10787;53.364;-1.480;2023-04-16T08:40:55;12.70;1.00
21259;DHT22;10787;53.364;-1.480;2023-04-16T08:43:47;12.80;1.00
21259;DHT22;10787;53.364;-1.480;2023-04-16T08:46:36;12.80;1.00
21259;DHT22;10787;53.364;-1.480;2023-04-16T08:49:20;12.70;1.00
21259;DHT22;10787;53.364;-1.480;2023-04-16T08:52:05;12.70;1.00
21259;DHT22;10787;53.364;-1.480;2023-04-16T08:57:49;13.00;1.00
21259;DHT22;10787;53.364;-1.480;2023-04-16T09:00:34;13.00;1.00
21259;DHT22;10787;53.364;-1.480;2023-04-16T09:03:21;13.10;1.00
21259;DHT22;10787;53.364;-1.480;2023-04-16T09:06:06;13.10;1.00
21259;DHT22;10787;53.364;-1.480;2023-04-16T09:08:52;13.30;1.00
21259;DHT22;10787;53.364;-1.480;2023-04-16T09:11:37;13.50;1.00
21259;DHT22;10787;53.364;-1.480;2023-04-16T09:14:22;13.60;1.00
21259;DHT22;10787;53.364;-1.480;2023-04-16T09:17:08;13.90;1.00
21259;DHT22;10787;53.364;-1.480;2023-04-16T09:19:53;13.90;1.00
21259;DHT22;10787;53.364;-1.480;2023-04-16T09:22:38;13.80;1.00
21259;DHT22;10787;53.364;-1.480;2023-04-16T09:25:25;13.70;1.00
21259;DHT22;10787;53.364;-1.480;2023-04-16T09:28:10;13.70;1.00
21259;DHT22;10787;53.364;-1.480;2023-04-16T09:31:10;13.70;1.00
21259;DHT22;10787;53.364;-1.480;2023-04-16T09:36:48;13.40;1.00
21259;DHT22;10787;53.364;-1.480;2023-04-16T09:39:33;13.50;1.00
21259;DHT22;10787;53.364;-1.480;2023-04-16T09:42:22;13.50;1.00
21259;DHT22;10787;53.364;-1.480;2023-04-16T09:45:06;13.50;1.00
21259;DHT22;10787;53.364;-1.480;2023-04-16T09:47:51;13.40;1.00
21259;DHT22;10787;53.364;-1.480;2023-04-16T09:50:35;13.50;1.00
21259;DHT22;10787;53.364;-1.480;2023-04-16T09:53:26;13.60;1.00
21259;DHT22;10787;53.364;-1.480;2023-04-16T09:56:12;13.70;1.00
21259;DHT22;10787;53.364;-1.480;2023-04-16T09:58:58;13.90;1.00
21259;DHT22;10787;53.364;-1.480;2023-04-16T10:01:42;14.10;1.00
21259;DHT22;10787;53.364;-1.480;2023-04-16T10:04:29;13.80;1.00
21259;DHT22;10787;53.364;-1.480;2023-04-16T10:07:15;13.80;1.00
21259;DHT22;10787;53.364;-1.480;2023-04-16T10:09:59;13.70;1.00
21259;DHT22;10787;53.364;-1.480;2023-04-16T10:12:44;13.70;1.00
21259;DHT22;10787;53.364;-1.480;2023-04-16T10:15:28;14.00;1.00
21259;DHT22;10787;53.364;-1.480;2023-04-16T10:18:22;14.10;1.00
21259;DHT22;10787;53.364;-1.480;2023-04-16T10:21:07;14.30;1.00
21259;DHT22;10787;53.364;-1.480;2023-04-16T10:23:51;14.30;1.00
21259;DHT22;10787;53.364;-1.480;2023-04-16T10:26:36;14.30;1.00
21259;DHT22;10787;53.364;-1.480;2023-04-16T10:29:21;14.30;1.00
21259;DHT22;10787;53.364;-1.480;2023-04-16T10:32:06;14.40;1.00
21259;DHT22;10787;53.364;-1.480;2023-04-16T10:34:50;14.40;1.00
21259;DHT22;10787;53.364;-1.480;2023-04-16T10:37:36;14.50;1.00
21259;DHT22;10787;53.364;-1.480;2023-04-16T10:40:25;14.50;1.00
21259;DHT22;10787;53.364;-1.480;2023-04-16T10:43:16;14.20;1.00
21259;DHT22;10787;53.364;-1.480;2023-04-16T10:46:25;14.20;1.00
21259;DHT22;10787;53.364;-1.480;2023-04-16T10:49:16;14.00;1.00
21259;DHT22;10787;53.364;-1.480;2023-04-16T10:52:13;13.90;1.00
21259;DHT22;10787;53.364;-1.480;2023-04-16T10:55:00;13.90;1.00
21259;DHT22;10787;53.364;-1.480;2023-04-16T10:57:48;14.20;1.00
21259;DHT22;10787;53.364;-1.480;2023-04-16T11:00:48;14.30;1.00
21259;DHT22;10787;53.364;-1.480;2023-04-16T11:03:32;14.20;1.00
21259;DHT22;10787;53.364;-1.480;2023-04-16T11:06:23;14.10;1.00
21259;DHT22;10787;53.364;-1.480;2023-04-16T11:12:32;14.20;1.00
21259;DHT22;10787;53.364;-1.480;2023-04-16T11:15:17;14.20;1.00
21259;DHT22;10787;53.364;-1.480;2023-04-16T11:18:05;14.50;1.00
21259;DHT22;10787;53.364;-1.480;2023-04-16T11:20:50;14.40;1.00
21259;DHT22;10787;53.364;-1.480;2023-04-16T11:23:48;14.60;1.00
21259;DHT22;10787;53.364;-1.480;2023-04-16T11:26:33;15.00;1.00
21259;DHT22;10787;53.364;-1.480;2023-04-16T11:29:17;15.30;1.00
21259;DHT22;10787;53.364;-1.480;2023-04-16T11:32:02;15.40;1.00
21259;DHT22;10787;53.364;-1.480;2023-04-16T11:34:46;15.40;1.00
21259;DHT22;10787;53.364;-1.480;2023-04-16T11:37:32;15.60;1.00
21259;DHT22;10787;53.364;-1.480;2023-04-16T11:40:17;15.80;1.00
21259;DHT22;10787;53.364;-1.480;2023-04-16T11:43:23;16.00;1.00
21259;DHT22;10787;53.364;-1.480;2023-04-16T11:46:06;16.40;1.00
21259;DHT22;10787;53.364;-1.480;2023-04-16T11:48:54;16.50;1.00
21259;DHT22;10787;53.364;-1.480;2023-04-16T11:51:43;16.50;1.00
21259;DHT22;10787;53.364;-1.480;2023-04-16T11:54:28;16.60;1.00
21259;DHT22;10787;53.364;-1.480;2023-04-16T11:57:30;16.40;1.00
21259;DHT22;10787;53.364;-1.480;2023-04-16T12:00:15;16.40;1.00
21259;DHT22;10787;53.364;-1.480;2023-04-16T12:03:01;16.60;1.00
21259;DHT22;10787;53.364;-1.480;2023-04-16T12:05:46;16.60;1.00
21259;DHT22;10787;53.364;-1.480;2023-04-16T12:08:30;16.50;1.00
21259;DHT22;10787;53.364;-1.480;2023-04-16T12:11:15;16.20;1.00
21259;DHT22;10787;53.364;-1.480;2023-04-16T12:14:06;16.20;1.00
21259;DHT22;10787;53.364;-1.480;2023-04-16T12:16:51;16.40;1.00
21259;DHT22;10787;53.364;-1.480;2023-04-16T12:19:50;16.70;1.00
21259;DHT22;10787;53.364;-1.480;2023-04-16T12:22:40;16.30;1.00
21259;DHT22;10787;53.364;-1.480;2023-04-16T12:25:27;16.00;1.00
21259;DHT22;10787;53.364;-1.480;2023-04-16T12:28:11;15.80;1.00
21259;DHT22;10787;53.364;-1.480;2023-04-16T12:30:56;15.60;1.00
21259;DHT22;10787;53.364;-1.480;2023-04-16T12:33:41;15.50;1.00
21259;DHT22;10787;53.364;-1.480;2023-04-16T12:36:26;15.30;1.00
21259;DHT22;10787;53.364;-1.480;2023-04-16T12:39:11;15.00;1.00
21259;DHT22;10787;53.364;-1.480;2023-04-16T12:41:56;15.00;1.00
21259;DHT22;10787;53.364;-1.480;2023-04-16T12:44:40;15.00;1.00
21259;DHT22;10787;53.364;-1.480;2023-04-16T12:47:25;15.00;1.00
21259;DHT22;10787;53.364;-1.480;2023-04-16T12:50:09;14.90;1.00
21259;DHT22;10787;53.364;-1.480;2023-04-16T12:53:00;14.80;1.00
21259;DHT22;10787;53.364;-1.480;2023-04-16T12:55:45;14.70;1.00
21259;DHT22;10787;53.364;-1.480;2023-04-16T12:58:29;14.60;1.00
21259;DHT22;10787;53.364;-1.480;2023-04-16T13:01:14;14.50;1.00
21259;DHT22;10787;53.364;-1.480;2023-04-16T13:03:58;14.40;1.00
21259;DHT22;10787;53.364;-1.480;2023-04-16T13:06:42;14.50;1.00
21259;DHT22;10787;53.364;-1.480;2023-04-16T13:09:27;14.50;1.00
21259;DHT22;10787;53.364;-1.480;2023-04-16T13:12:14;14.70;1.00
21259;DHT22;10787;53.364;-1.480;2023-04-16T13:14:59;14.50;1.00
21259;DHT22;10787;53.364;-1.480;2023-04-16T13:17:43;14.60;1.00
21259;DHT22;10787;53.364;-1.480;2023-04-16T13:20:28;14.60;1.00
21259;DHT22;10787;53.364;-1.480;2023-04-16T13:23:12;14.50;1.00
21259;DHT22;10787;53.364;-1.480;2023-04-16T13:25:56;14.30;1.00
21259;DHT22;10787;53.364;-1.480;2023-04-16T13:28:41;14.20;1.00
21259;DHT22;10787;53.364;-1.480;2023-04-16T13:31:25;14.00;1.00
21259;DHT22;10787;53.364;-1.480;2023-04-16T13:34:10;13.90;1.00
21259;DHT22;10787;53.364;-1.480;2023-04-16T13:36:55;13.90;1.00
21259;DHT22;10787;53.364;-1.480;2023-04-16T13:39:39;13.90;1.00
21259;DHT22;10787;53.364;-1.480;2023-04-16T13:42:24;14.10;1.00
21259;DHT22;10787;53.364;-1.480;2023-04-16T13:45:08;14.10;1.00
21259;DHT22;10787;53.364;-1.480;2023-04-16T13:47:53;14.00;1.00
21259;DHT22;10787;53.364;-1.480;2023-04-16T13:50:38;14.00;1.00
21259;DHT22;10787;53.364;-1.480;2023-04-16T13:53:23;13.90;1.00
21259;DHT22;10787;53.364;-1.480;2023-04-16T13:56:08;13.90;1.00
21259;DHT22;10787;53.364;-1.480;2023-04-16T13:58:53;13.80;1.00
21259;DHT22;10787;53.364;-1.480;2023-04-16T14:01:37;13.80;1.00
21259;DHT22;10787;53.364;-1.480;2023-04-16T14:04:22;13.70;1.00
21259;DHT22;10787;53.364;-1.480;2023-04-16T14:07:06;13.80;1.00
21259;DHT22;10787;53.364;-1.480;2023-04-16T14:09:50;13.90;1.00
21259;DHT22;10787;53.364;-1.480;2023-04-16T14:12:34;14.00;1.00
21259;DHT22;10787;53.364;-1.480;2023-04-16T14:15:19;14.00;1.00
21259;DHT22;10787;53.364;-1.480;2023-04-16T14:18:04;14.20;1.00
21259;DHT22;10787;53.364;-1.480;2023-04-16T14:20:48;14.30;1.00
21259;DHT22;10787;53.364;-1.480;2023-04-16T14:23:33;14.00;1.00
21259;DHT22;10787;53.364;-1.480;2023-04-16T14:26:17;13.90;1.00
21259;DHT22;10787;53.364;-1.480;2023-04-16T14:29:01;13.70;1.00
21259;DHT22;10787;53.364;-1.480;2023-04-16T14:31:46;13.60;1.00
21259;DHT22;10787;53.364;-1.480;2023-04-16T14:34:31;13.70;1.00
21259;DHT22;10787;53.364;-1.480;2023-04-16T14:37:30;13.80;1.00
21259;DHT22;10787;53.364;-1.480;2023-04-16T14:40:22;13.90;1.00
21259;DHT22;10787;53.364;-1.480;2023-04-16T14:43:06;13.90;1.00
21259;DHT22;10787;53.364;-1.480;2023-04-16T14:45:50;13.90;1.00
21259;DHT22;10787;53.364;-1.480;2023-04-16T14:48:35;13.90;1.00
21259;DHT22;10787;53.364;-1.480;2023-04-16T14:51:19;14.00;1.00
21259;DHT22;10787;53.364;-1.480;2023-04-16T14:54:03;13.90;1.00
21259;DHT22;10787;53.364;-1.480;2023-04-16T14:56:48;13.80;1.00
21259;DHT22;10787;53.364;-1.480;2023-04-16T14:59:33;13.80;1.00
21259;DHT22;10787;53.364;-1.480;2023-04-16T15:02:17;13.80;1.00
21259;DHT22;10787;53.364;-1.480;2023-04-16T15:05:02;13.80;1.00
21259;DHT22;10787;53.364;-1.480;2023-04-16T15:07:47;13.80;1.00
21259;DHT22;10787;53.364;-1.480;2023-04-16T15:10:31;13.80;1.00
21259;DHT22;10787;53.364;-1.480;2023-04-16T15:13:16;13.70;1.00
21259;DHT22;10787;53.364;-1.480;2023-04-16T15:16:01;13.60;1.00
21259;DHT22;10787;53.364;-1.480;2023-04-16T15:19:07;13.50;1.00
21259;DHT22;10787;53.364;-1.480;2023-04-16T15:21:51;13.60;1.00
21259;DHT22;10787;53.364;-1.480;2023-04-16T15:24:36;13.70;1.00
21259;DHT22;10787;53.364;-1.480;2023-04-16T15:27:20;13.80;1.00
21259;DHT22;10787;53.364;-1.480;2023-04-16T15:30:05;13.90;1.00
21259;DHT22;10787;53.364;-1.480;2023-04-16T15:32:50;13.90;1.00
21259;DHT22;10787;53.364;-1.480;2023-04-16T15:35:35;13.70;1.00
21259;DHT22;10787;53.364;-1.480;2023-04-16T15:38:19;13.70;1.00
21259;DHT22;10787;53.364;-1.480;2023-04-16T15:41:04;13.70;1.00
21259;DHT22;10787;53.364;-1.480;2023-04-16T15:43:48;13.60;1.00
21259;DHT22;10787;53.364;-1.480;2023-04-16T15:46:33;13.70;1.00
21259;DHT22;10787;53.364;-1.480;2023-04-16T15:49:20;13.60;1.00
21259;DHT22;10787;53.364;-1.480;2023-04-16T15:52:05;13.60;1.00
21259;DHT22;10787;53.364;-1.480;2023-04-16T15:54:49;13.60;1.00
21259;DHT22;10787;53.364;-1.480;2023-04-16T15:57:34;13.60;1.00
21259;DHT22;10787;53.364;-1.480;2023-04-16T16:00:19;13.70;1.00
21259;DHT22;10787;53.364;-1.480;2023-04-16T16:03:04;13.70;1.00
21259;DHT22;10787;53.364;-1.480;2023-04-16T16:05:49;13.80;1.00
21259;DHT22;10787;53.364;-1.480;2023-04-16T16:08:33;14.00;1.00
21259;DHT22;10787;53.364;-1.480;2023-04-16T16:11:19;14.10;1.00
21259;DHT22;10787;53.364;-1.480;2023-04-16T16:14:03;14.20;1.00
21259;DHT22;10787;53.364;-1.480;2023-04-16T16:16:47;14.30;1.00
21259;DHT22;10787;53.364;-1.480;2023-04-16T16:19:31;14.30;1.00
21259;DHT22;10787;53.364;-1.480;2023-04-16T16:22:16;14.20;1.00
21259;DHT22;10787;53.364;-1.480;2023-04-16T16:25:04;14.20;1.00
21259;DHT22;10787;53.364;-1.480;2023-04-16T16:27:49;14.20;1.00
21259;DHT22;10787;53.364;-1.480;2023-04-16T16:30:33;14.10;1.00
21259;DHT22;10787;53.364;-1.480;2023-04-16T16:33:17;14.10;1.00
21259;DHT22;10787;53.364;-1.480;2023-04-16T16:36:02;14.10;1.00
21259;DHT22;10787;53.364;-1.480;2023-04-16T16:38:46;13.90;1.00
21259;DHT22;10787;53.364;-1.480;2023-04-16T16:41:31;13.90;1.00
21259;DHT22;10787;53.364;-1.480;2023-04-16T16:44:21;13.80;1.00
21259;DHT22;10787;53.364;-1.480;2023-04-16T16:47:05;14.00;1.00
21259;DHT22;10787;53.364;-1.480;2023-04-16T16:49:49;13.90;1.00
21259;DHT22;10787;53.364;-1.480;2023-04-16T16:52:34;13.90;1.00
21259;DHT22;10787;53.364;-1.480;2023-04-16T16:55:18;13.80;1.00
21259;DHT22;10787;53.364;-1.480;2023-04-16T16:58:03;13.70;1.00
21259;DHT22;10787;53.364;-1.480;2023-04-16T17:00:48;13.70;1.00
21259;DHT22;10787;53.364;-1.480;2023-04-16T17:03:33;13.60;1.00
21259;DHT22;10787;53.364;-1.480;2023-04-16T17:06:18;13.60;1.00
21259;DHT22;10787;53.364;-1.480;2023-04-16T17:09:03;13.60;1.00
21259;DHT22;10787;53.364;-1.480;2023-04-16T17:11:48;13.60;1.00
21259;DHT22;10787;53.364;-1.480;2023-04-16T17:14:32;13.60;1.00
21259;DHT22;10787;53.364;-1.480;2023-04-16T17:17:17;13.50;1.00
21259;DHT22;10787;53.364;-1.480;2023-04-16T17:20:02;13.50;1.00
21259;DHT22;10787;53.364;-1.480;2023-04-16T17:22:52;13.50;1.00
21259;DHT22;10787;53.364;-1.480;2023-04-16T17:25:36;13.50;1.00
21259;DHT22;10787;53.364;-1.480;2023-04-16T17:28:20;13.30;1.00
21259;DHT22;10787;53.364;-1.480;2023-04-16T17:31:05;13.20;1.00
21259;DHT22;10787;53.364;-1.480;2023-04-16T17:33:51;13.20;1.00
21259;DHT22;10787;53.364;-1.480;2023-04-16T17:36:36;13.20;1.00
21259;DHT22;10787;53.364;-1.480;2023-04-16T17:39:20;13.20;1.00
21259;DHT22;10787;53.364;-1.480;2023-04-16T17:42:04;13.20;1.00